Main page
METAR-TAF:

METAR-TAF

Airports :

Brussels South Charleroi Airport

Charleroi, Belgium

latitude: 50-28N, longitude: 004-27E, elevation: 187 m

Current weather observation

The report was made 19 minutes ago, at 16:20 UTC
Wind 5 kt from the East/Southeast, varying between East and South/Southwest
Temperature 14°C
Humidity 38%
Pressure 1021 hPa
Visibility 10 km or more
no clouds below 1500 m and no cumulonimbus

METAR: EBCI 041620Z AUTO 12005KT 090V200 CAVOK 14/M00 Q1021

Time: 18:39 (16:39 UTC)

Forecast

The report was made 5 hours and 39 minutes ago, at 11:00 UTC
Forecast valid from 04 at 12 UTC to 05 at 18 UTC
Wind 5 kt from the South
Visibility 10 km or more
Few clouds at a height of 4500 ft

TAF: EBCI 041100Z 0412/0518 17005KT 9999 FEW045

Weather observations and forecasts of more than 4000 airports (METAR and TAF reports).

The available stations are represented by yellow and red dots on the map.

Hover mouse over dot to see the name of the station.

Then click to see weather observations and forecasts.

To change the map : click on the green buttons with a black cross to zoom in, on the green button with a dash to zoom out, or on the green arrows for adjacent maps.


METAR-TAF: